sensor_id;sensor_type;location;lat;lon;timestamp;temperature;humidity
22674;DHT22;11504;43.334;21.918;2023-05-10T00:00:12;13.5;100.0
22674;DHT22;11504;43.334;21.918;2023-05-10T00:04:50;13.4;100.0
22674;DHT22;11504;43.334;21.918;2023-05-10T00:09:26;13.4;100.0
22674;DHT22;11504;43.334;21.918;2023-05-10T00:14:03;13.4;100.0
22674;DHT22;11504;43.334;21.918;2023-05-10T00:18:40;13.4;100.0
22674;DHT22;11504;43.334;21.918;2023-05-10T00:23:17;13.4;100.0
22674;DHT22;11504;43.334;21.918;2023-05-10T00:27:54;13.4;100.0
22674;DHT22;11504;43.334;21.918;2023-05-10T00:32:31;13.3;100.0
22674;DHT22;11504;43.334;21.918;2023-05-10T00:37:08;13.3;100.0
22674;DHT22;11504;43.334;21.918;2023-05-10T00:41:45;13.3;100.0
22674;DHT22;11504;43.334;21.918;2023-05-10T00:46:22;13.3;100.0
22674;DHT22;11504;43.334;21.918;2023-05-10T00:51:02;13.3;100.0
22674;DHT22;11504;43.334;21.918;2023-05-10T00:55:40;13.3;100.0
22674;DHT22;11504;43.334;21.918;2023-05-10T01:00:20;13.3;100.0
22674;DHT22;11504;43.334;21.918;2023-05-10T01:04:57;13.2;100.0
22674;DHT22;11504;43.334;21.918;2023-05-10T01:09:39;13.2;100.0
22674;DHT22;11504;43.334;21.918;2023-05-10T01:14:18;13.2;100.0
22674;DHT22;11504;43.334;21.918;2023-05-10T01:18:57;13.2;100.0
22674;DHT22;11504;43.334;21.918;2023-05-10T01:23:54;13.2;100.0
22674;DHT22;11504;43.334;21.918;2023-05-10T01:30:26;13.2;100.0
22674;DHT22;11504;43.334;21.918;2023-05-10T01:36:04;13.3;100.0
22674;DHT22;11504;43.334;21.918;2023-05-10T01:41:16;13.3;100.0
22674;DHT22;11504;43.334;21.918;2023-05-10T01:46:29;13.3;100.0
22674;DHT22;11504;43.334;21.918;2023-05-10T01:51:20;13.3;100.0
22674;DHT22;11504;43.334;21.918;2023-05-10T01:56:24;13.3;100.0
22674;DHT22;11504;43.334;21.918;2023-05-10T02:01:13;13.3;100.0
22674;DHT22;11504;43.334;21.918;2023-05-10T02:06:00;13.3;100.0
22674;DHT22;11504;43.334;21.918;2023-05-10T02:10:50;13.3;100.0
22674;DHT22;11504;43.334;21.918;2023-05-10T02:15:37;13.3;100.0
22674;DHT22;11504;43.334;21.918;2023-05-10T02:20:25;13.3;100.0
22674;DHT22;11504;43.334;21.918;2023-05-10T02:25:09;13.3;100.0
22674;DHT22;11504;43.334;21.918;2023-05-10T02:29:52;13.3;100.0
22674;DHT22;11504;43.334;21.918;2023-05-10T02:34:33;13.3;100.0
22674;DHT22;11504;43.334;21.918;2023-05-10T02:39:12;13.3;100.0
22674;DHT22;11504;43.334;21.918;2023-05-10T02:43:57;13.2;100.0
22674;DHT22;11504;43.334;21.918;2023-05-10T02:48:43;13.2;100.0
22674;DHT22;11504;43.334;21.918;2023-05-10T02:53:22;13.2;100.0
22674;DHT22;11504;43.334;21.918;2023-05-10T02:58:11;13.2;100.0
22674;DHT22;11504;43.334;21.918;2023-05-10T03:02:48;13.0;100.0
22674;DHT22;11504;43.334;21.918;2023-05-10T03:07:24;13.0;100.0
22674;DHT22;11504;43.334;21.918;2023-05-10T03:12:06;12.9;100.0
22674;DHT22;11504;43.334;21.918;2023-05-10T03:17:46;12.9;100.0
22674;DHT22;11504;43.334;21.918;2023-05-10T03:22:48;12.8;100.0
22674;DHT22;11504;43.334;21.918;2023-05-10T03:28:03;12.8;100.0
22674;DHT22;11504;43.334;21.918;2023-05-10T03:32:44;12.7;100.0
22674;DHT22;11504;43.334;21.918;2023-05-10T03:37:20;12.7;100.0
22674;DHT22;11504;43.334;21.918;2023-05-10T03:41:57;12.6;100.0
22674;DHT22;11504;43.334;21.918;2023-05-10T03:46:34;12.6;100.0
22674;DHT22;11504;43.334;21.918;2023-05-10T03:51:10;12.5;100.0
22674;DHT22;11504;43.334;21.918;2023-05-10T03:55:46;12.5;100.0
22674;DHT22;11504;43.334;21.918;2023-05-10T04:00:23;12.5;100.0
22674;DHT22;11504;43.334;21.918;2023-05-10T04:05:00;12.5;100.0
22674;DHT22;11504;43.334;21.918;2023-05-10T04:09:36;12.5;100.0
22674;DHT22;11504;43.334;21.918;2023-05-10T04:14:13;12.5;100.0
22674;DHT22;11504;43.334;21.918;2023-05-10T04:18:49;12.5;100.0
22674;DHT22;11504;43.334;21.918;2023-05-10T04:23:26;12.6;100.0
22674;DHT22;11504;43.334;21.918;2023-05-10T04:28:03;12.6;100.0
22674;DHT22;11504;43.334;21.918;2023-05-10T04:32:40;12.6;100.0
22674;DHT22;11504;43.334;21.918;2023-05-10T04:37:17;12.6;100.0
22674;DHT22;11504;43.334;21.918;2023-05-10T04:41:54;12.6;100.0
22674;DHT22;11504;43.334;21.918;2023-05-10T04:46:31;12.6;100.0
22674;DHT22;11504;43.334;21.918;2023-05-10T04:51:08;12.7;100.0
22674;DHT22;11504;43.334;21.918;2023-05-10T04:55:44;12.7;100.0
22674;DHT22;11504;43.334;21.918;2023-05-10T05:00:20;12.7;100.0
22674;DHT22;11504;43.334;21.918;2023-05-10T05:04:57;12.8;100.0
22674;DHT22;11504;43.334;21.918;2023-05-10T05:09:33;12.8;100.0
22674;DHT22;11504;43.334;21.918;2023-05-10T05:14:10;12.8;100.0
22674;DHT22;11504;43.334;21.918;2023-05-10T05:18:46;12.8;100.0
22674;DHT22;11504;43.334;21.918;2023-05-10T05:23:22;12.8;100.0
22674;DHT22;11504;43.334;21.918;2023-05-10T05:27:58;12.8;100.0
22674;DHT22;11504;43.334;21.918;2023-05-10T05:32:35;12.9;100.0
22674;DHT22;11504;43.334;21.918;2023-05-10T05:37:13;12.9;100.0
22674;DHT22;11504;43.334;21.918;2023-05-10T05:41:52;12.9;100.0
22674;DHT22;11504;43.334;21.918;2023-05-10T05:46:28;12.9;100.0
22674;DHT22;11504;43.334;21.918;2023-05-10T05:51:05;12.9;100.0
22674;DHT22;11504;43.334;21.918;2023-05-10T05:55:51;12.9;100.0
22674;DHT22;11504;43.334;21.918;2023-05-10T06:00:34;12.9;100.0
22674;DHT22;11504;43.334;21.918;2023-05-10T06:05:10;13.0;100.0
22674;DHT22;11504;43.334;21.918;2023-05-10T06:09:47;13.0;100.0
22674;DHT22;11504;43.334;21.918;2023-05-10T06:14:24;13.0;100.0
22674;DHT22;11504;43.334;21.918;2023-05-10T06:19:01;13.0;100.0
22674;DHT22;11504;43.334;21.918;2023-05-10T06:23:39;12.9;100.0
22674;DHT22;11504;43.334;21.918;2023-05-10T06:28:15;12.9;100.0
22674;DHT22;11504;43.334;21.918;2023-05-10T06:32:51;12.8;100.0
22674;DHT22;11504;43.334;21.918;2023-05-10T06:37:29;12.8;100.0
22674;DHT22;11504;43.334;21.918;2023-05-10T06:42:05;12.8;100.0
22674;DHT22;11504;43.334;21.918;2023-05-10T06:46:42;12.8;100.0
22674;DHT22;11504;43.334;21.918;2023-05-10T06:51:18;12.8;100.0
22674;DHT22;11504;43.334;21.918;2023-05-10T06:55:54;12.8;100.0
22674;DHT22;11504;43.334;21.918;2023-05-10T07:00:31;12.8;100.0
22674;DHT22;11504;43.334;21.918;2023-05-10T07:05:08;12.8;100.0
22674;DHT22;11504;43.334;21.918;2023-05-10T07:09:45;12.8;100.0
22674;DHT22;11504;43.334;21.918;2023-05-10T07:14:23;12.8;100.0
22674;DHT22;11504;43.334;21.918;2023-05-10T07:18:59;12.8;100.0
22674;DHT22;11504;43.334;21.918;2023-05-10T07:23:36;12.8;100.0
22674;DHT22;11504;43.334;21.918;2023-05-10T07:28:13;12.8;100.0
22674;DHT22;11504;43.334;21.918;2023-05-10T07:32:51;12.8;100.0
22674;DHT22;11504;43.334;21.918;2023-05-10T07:37:28;12.8;100.0
22674;DHT22;11504;43.334;21.918;2023-05-10T07:42:05;12.8;100.0
22674;DHT22;11504;43.334;21.918;2023-05-10T07:46:42;12.8;100.0
22674;DHT22;11504;43.334;21.918;2023-05-10T07:51:18;12.9;100.0
22674;DHT22;11504;43.334;21.918;2023-05-10T07:55:57;12.9;100.0
22674;DHT22;11504;43.334;21.918;2023-05-10T08:00:34;12.9;100.0
22674;DHT22;11504;43.334;21.918;2023-05-10T08:05:11;13.0;100.0
22674;DHT22;11504;43.334;21.918;2023-05-10T08:09:48;13.0;100.0
22674;DHT22;11504;43.334;21.918;2023-05-10T08:14:25;13.0;100.0
22674;DHT22;11504;43.334;21.918;2023-05-10T08:19:04;13.0;100.0
22674;DHT22;11504;43.334;21.918;2023-05-10T08:23:41;13.0;100.0
22674;DHT22;11504;43.334;21.918;2023-05-10T08:28:18;13.0;100.0
22674;DHT22;11504;43.334;21.918;2023-05-10T08:32:55;13.1;100.0
22674;DHT22;11504;43.334;21.918;2023-05-10T08:37:31;13.1;100.0
22674;DHT22;11504;43.334;21.918;2023-05-10T08:42:08;13.2;100.0
22674;DHT22;11504;43.334;21.918;2023-05-10T08:46:55;13.2;100.0
22674;DHT22;11504;43.334;21.918;2023-05-10T08:51:50;13.3;100.0
22674;DHT22;11504;43.334;21.918;2023-05-10T08:56:39;13.3;100.0
22674;DHT22;11504;43.334;21.918;2023-05-10T09:01:18;13.4;100.0
22674;DHT22;11504;43.334;21.918;2023-05-10T09:06:02;13.4;100.0
22674;DHT22;11504;43.334;21.918;2023-05-10T09:10:39;13.4;100.0
22674;DHT22;11504;43.334;21.918;2023-05-10T09:15:22;13.5;100.0
22674;DHT22;11504;43.334;21.918;2023-05-10T09:20:00;13.5;100.0
22674;DHT22;11504;43.334;21.918;2023-05-10T09:24:43;13.5;100.0
22674;DHT22;11504;43.334;21.918;2023-05-10T09:29:19;13.5;100.0
22674;DHT22;11504;43.334;21.918;2023-05-10T09:33:56;13.5;100.0
22674;DHT22;11504;43.334;21.918;2023-05-10T09:38:44;13.5;100.0
22674;DHT22;11504;43.334;21.918;2023-05-10T09:43:27;13.6;100.0
22674;DHT22;11504;43.334;21.918;2023-05-10T09:48:13;13.6;100.0
22674;DHT22;11504;43.334;21.918;2023-05-10T09:52:51;13.6;100.0
22674;DHT22;11504;43.334;21.918;2023-05-10T09:57:38;13.6;100.0
22674;DHT22;11504;43.334;21.918;2023-05-10T10:02:16;13.9;100.0
22674;DHT22;11504;43.334;21.918;2023-05-10T10:07:02;13.9;100.0
22674;DHT22;11504;43.334;21.918;2023-05-10T10:11:40;14.2;100.0
22674;DHT22;11504;43.334;21.918;2023-05-10T10:16:17;14.2;100.0
22674;DHT22;11504;43.334;21.918;2023-05-10T10:20:57;14.2;100.0
22674;DHT22;11504;43.334;21.918;2023-05-10T10:25:35;14.6;100.0
22674;DHT22;11504;43.334;21.918;2023-05-10T10:30:21;14.6;100.0
22674;DHT22;11504;43.334;21.918;2023-05-10T10:35:17;14.9;100.0
22674;DHT22;11504;43.334;21.918;2023-05-10T10:39:55;14.9;100.0
22674;DHT22;11504;43.334;21.918;2023-05-10T10:44:35;15.2;100.0
22674;DHT22;11504;43.334;21.918;2023-05-10T10:49:14;15.2;100.0
22674;DHT22;11504;43.334;21.918;2023-05-10T10:53:51;15.5;100.0
22674;DHT22;11504;43.334;21.918;2023-05-10T10:58:29;15.5;100.0
22674;DHT22;11504;43.334;21.918;2023-05-10T11:03:10;15.6;100.0
22674;DHT22;11504;43.334;21.918;2023-05-10T11:07:52;15.6;100.0
22674;DHT22;11504;43.334;21.918;2023-05-10T11:12:50;15.7;100.0
22674;DHT22;11504;43.334;21.918;2023-05-10T11:17:38;15.7;100.0
22674;DHT22;11504;43.334;21.918;2023-05-10T11:22:15;15.9;100.0
22674;DHT22;11504;43.334;21.918;2023-05-10T11:26:53;15.9;100.0
22674;DHT22;11504;43.334;21.918;2023-05-10T11:31:31;16.1;100.0
22674;DHT22;11504;43.334;21.918;2023-05-10T11:36:18;16.1;100.0
22674;DHT22;11504;43.334;21.918;2023-05-10T11:41:04;16.1;100.0
22674;DHT22;11504;43.334;21.918;2023-05-10T11:45:44;16.0;100.0
22674;DHT22;11504;43.334;21.918;2023-05-10T11:50:22;16.0;100.0
22674;DHT22;11504;43.334;21.918;2023-05-10T11:54:59;16.0;100.0
22674;DHT22;11504;43.334;21.918;2023-05-10T11:59:36;16.0;100.0
22674;DHT22;11504;43.334;21.918;2023-05-10T12:04:12;16.0;100.0
22674;DHT22;11504;43.334;21.918;2023-05-10T12:08:50;16.0;100.0
22674;DHT22;11504;43.334;21.918;2023-05-10T12:13:26;16.0;100.0
22674;DHT22;11504;43.334;21.918;2023-05-10T12:18:04;16.0;100.0
22674;DHT22;11504;43.334;21.918;2023-05-10T12:22:45;16.0;100.0
22674;DHT22;11504;43.334;21.918;2023-05-10T12:27:31;16.0;100.0
22674;DHT22;11504;43.334;21.918;2023-05-10T12:32:08;16.1;100.0
22674;DHT22;11504;43.334;21.918;2023-05-10T12:36:45;16.1;100.0
22674;DHT22;11504;43.334;21.918;2023-05-10T12:41:28;16.2;100.0
22674;DHT22;11504;43.334;21.918;2023-05-10T12:46:06;16.2;100.0
22674;DHT22;11504;43.334;21.918;2023-05-10T12:50:49;16.2;100.0
22674;DHT22;11504;43.334;21.918;2023-05-10T12:55:26;16.4;100.0
22674;DHT22;11504;43.334;21.918;2023-05-10T13:00:04;16.4;100.0
22674;DHT22;11504;43.334;21.918;2023-05-10T13:04:47;16.5;100.0
22674;DHT22;11504;43.334;21.918;2023-05-10T13:09:26;16.5;100.0
22674;DHT22;11504;43.334;21.918;2023-05-10T13:14:03;16.7;100.0
22674;DHT22;11504;43.334;21.918;2023-05-10T13:18:39;16.7;100.0
22674;DHT22;11504;43.334;21.918;2023-05-10T13:23:15;16.8;100.0
22674;DHT22;11504;43.334;21.918;2023-05-10T13:27:52;16.8;100.0
22674;DHT22;11504;43.334;21.918;2023-05-10T13:32:28;16.8;100.0
22674;DHT22;11504;43.334;21.918;2023-05-10T13:37:05;16.8;100.0
22674;DHT22;11504;43.334;21.918;2023-05-10T13:41:42;17.0;100.0
22674;DHT22;11504;43.334;21.918;2023-05-10T13:46:18;17.0;100.0
22674;DHT22;11504;43.334;21.918;2023-05-10T13:50:55;17.0;100.0
22674;DHT22;11504;43.334;21.918;2023-05-10T13:55:32;17.1;100.0
22674;DHT22;11504;43.334;21.918;2023-05-10T14:00:10;17.1;100.0
22674;DHT22;11504;43.334;21.918;2023-05-10T14:04:50;17.1;100.0
22674;DHT22;11504;43.334;21.918;2023-05-10T14:09:27;17.1;100.0
22674;DHT22;11504;43.334;21.918;2023-05-10T14:14:04;17.1;100.0
22674;DHT22;11504;43.334;21.918;2023-05-10T14:18:41;17.1;100.0
22674;DHT22;11504;43.334;21.918;2023-05-10T14:23:17;17.1;100.0
22674;DHT22;11504;43.334;21.918;2023-05-10T14:27:54;17.1;100.0
22674;DHT22;11504;43.334;21.918;2023-05-10T14:32:31;17.1;100.0
22674;DHT22;11504;43.334;21.918;2023-05-10T14:37:10;17.1;100.0
22674;DHT22;11504;43.334;21.918;2023-05-10T14:41:49;17.0;100.0
22674;DHT22;11504;43.334;21.918;2023-05-10T14:46:26;17.0;100.0
22674;DHT22;11504;43.334;21.918;2023-05-10T14:51:02;17.0;100.0
22674;DHT22;11504;43.334;21.918;2023-05-10T14:55:39;16.9;100.0
22674;DHT22;11504;43.334;21.918;2023-05-10T15:00:17;16.9;100.0
22674;DHT22;11504;43.334;21.918;2023-05-10T15:04:57;16.8;100.0
22674;DHT22;11504;43.334;21.918;2023-05-10T15:09:34;16.8;100.0
22674;DHT22;11504;43.334;21.918;2023-05-10T15:14:10;16.7;100.0
22674;DHT22;11504;43.334;21.918;2023-05-10T15:18:47;16.7;100.0
22674;DHT22;11504;43.334;21.918;2023-05-10T15:23:24;16.6;100.0
22674;DHT22;11504;43.334;21.918;2023-05-10T15:28:01;16.6;100.0
22674;DHT22;11504;43.334;21.918;2023-05-10T15:32:39;16.6;100.0
22674;DHT22;11504;43.334;21.918;2023-05-10T15:37:16;16.6;100.0
22674;DHT22;11504;43.334;21.918;2023-05-10T15:41:53;16.5;100.0
22674;DHT22;11504;43.334;21.918;2023-05-10T15:46:29;16.5;100.0
22674;DHT22;11504;43.334;21.918;2023-05-10T15:51:06;16.5;100.0
22674;DHT22;11504;43.334;21.918;2023-05-10T15:55:43;16.4;100.0
22674;DHT22;11504;43.334;21.918;2023-05-10T16:00:19;16.4;100.0
22674;DHT22;11504;43.334;21.918;2023-05-10T16:04:55;16.3;100.0
22674;DHT22;11504;43.334;21.918;2023-05-10T16:09:32;16.3;100.0
22674;DHT22;11504;43.334;21.918;2023-05-10T16:14:08;16.2;100.0
22674;DHT22;11504;43.334;21.918;2023-05-10T16:18:45;16.2;100.0
22674;DHT22;11504;43.334;21.918;2023-05-10T16:23:21;16.1;100.0
22674;DHT22;11504;43.334;21.918;2023-05-10T16:27:58;16.1;100.0
22674;DHT22;11504;43.334;21.918;2023-05-10T16:32:36;16.0;100.0
22674;DHT22;11504;43.334;21.918;2023-05-10T16:37:13;16.0;100.0
22674;DHT22;11504;43.334;21.918;2023-05-10T16:41:50;15.9;100.0
22674;DHT22;11504;43.334;21.918;2023-05-10T16:46:27;15.9;100.0
22674;DHT22;11504;43.334;21.918;2023-05-10T16:51:04;15.9;100.0
22674;DHT22;11504;43.334;21.918;2023-05-10T16:55:40;15.8;100.0
22674;DHT22;11504;43.334;21.918;2023-05-10T17:00:18;15.8;100.0
22674;DHT22;11504;43.334;21.918;2023-05-10T17:04:55;15.7;100.0
22674;DHT22;11504;43.334;21.918;2023-05-10T17:09:32;15.7;100.0
22674;DHT22;11504;43.334;21.918;2023-05-10T17:14:09;15.6;100.0
22674;DHT22;11504;43.334;21.918;2023-05-10T17:18:45;15.6;100.0
22674;DHT22;11504;43.334;21.918;2023-05-10T17:23:22;15.5;100.0
22674;DHT22;11504;43.334;21.918;2023-05-10T17:27:59;15.5;100.0
22674;DHT22;11504;43.334;21.918;2023-05-10T17:32:35;15.4;100.0
22674;DHT22;11504;43.334;21.918;2023-05-10T17:37:12;15.4;100.0
22674;DHT22;11504;43.334;21.918;2023-05-10T17:41:48;15.2;100.0
22674;DHT22;11504;43.334;21.918;2023-05-10T17:46:24;15.2;100.0
22674;DHT22;11504;43.334;21.918;2023-05-10T17:51:01;15.2;100.0
22674;DHT22;11504;43.334;21.918;2023-05-10T17:55:39;15.1;100.0
22674;DHT22;11504;43.334;21.918;2023-05-10T18:00:18;15.1;100.0
22674;DHT22;11504;43.334;21.918;2023-05-10T18:04:55;15.0;100.0
22674;DHT22;11504;43.334;21.918;2023-05-10T18:09:32;15.0;100.0
22674;DHT22;11504;43.334;21.918;2023-05-10T18:14:09;15.0;100.0
22674;DHT22;11504;43.334;21.918;2023-05-10T18:18:46;15.0;100.0
22674;DHT22;11504;43.334;21.918;2023-05-10T18:23:23;15.0;100.0
22674;DHT22;11504;43.334;21.918;2023-05-10T18:28:00;15.0;100.0
22674;DHT22;11504;43.334;21.918;2023-05-10T18:32:36;14.9;100.0
22674;DHT22;11504;43.334;21.918;2023-05-10T18:37:12;14.9;100.0
22674;DHT22;11504;43.334;21.918;2023-05-10T18:41:49;14.8;100.0
22674;DHT22;11504;43.334;21.918;2023-05-10T18:46:25;14.8;100.0
22674;DHT22;11504;43.334;21.918;2023-05-10T18:51:01;14.8;100.0
22674;DHT22;11504;43.334;21.918;2023-05-10T18:55:38;14.7;100.0
22674;DHT22;11504;43.334;21.918;2023-05-10T19:00:14;14.7;100.0
22674;DHT22;11504;43.334;21.918;2023-05-10T19:04:51;14.6;100.0
22674;DHT22;11504;43.334;21.918;2023-05-10T19:09:28;14.6;100.0
22674;DHT22;11504;43.334;21.918;2023-05-10T19:14:04;14.6;100.0
22674;DHT22;11504;43.334;21.918;2023-05-10T19:18:41;14.6;100.0
22674;DHT22;11504;43.334;21.918;2023-05-10T19:23:19;14.6;100.0
22674;DHT22;11504;43.334;21.918;2023-05-10T19:27:55;14.6;100.0
22674;DHT22;11504;43.334;21.918;2023-05-10T19:32:33;14.6;100.0
22674;DHT22;11504;43.334;21.918;2023-05-10T19:37:09;14.6;100.0
22674;DHT22;11504;43.334;21.918;2023-05-10T19:41:46;14.6;100.0
22674;DHT22;11504;43.334;21.918;2023-05-10T19:46:23;14.6;100.0
22674;DHT22;11504;43.334;21.918;2023-05-10T19:51:01;14.6;100.0
22674;DHT22;11504;43.334;21.918;2023-05-10T19:55:40;14.5;100.0
22674;DHT22;11504;43.334;21.918;2023-05-10T20:00:17;14.5;100.0
22674;DHT22;11504;43.334;21.918;2023-05-10T20:04:54;14.4;100.0
22674;DHT22;11504;43.334;21.918;2023-05-10T20:09:30;14.4;100.0
22674;DHT22;11504;43.334;21.918;2023-05-10T20:14:07;14.4;100.0
22674;DHT22;11504;43.334;21.918;2023-05-10T20:18:44;14.4;100.0
22674;DHT22;11504;43.334;21.918;2023-05-10T20:23:21;14.4;100.0
22674;DHT22;11504;43.334;21.918;2023-05-10T20:27:58;14.4;100.0
22674;DHT22;11504;43.334;21.918;2023-05-10T20:32:35;14.3;100.0
22674;DHT22;11504;43.334;21.918;2023-05-10T20:37:14;14.3;100.0
22674;DHT22;11504;43.334;21.918;2023-05-10T20:41:50;14.3;100.0
22674;DHT22;11504;43.334;21.918;2023-05-10T20:46:27;14.3;100.0
22674;DHT22;11504;43.334;21.918;2023-05-10T20:51:04;14.3;100.0
22674;DHT22;11504;43.334;21.918;2023-05-10T20:55:41;14.3;100.0
22674;DHT22;11504;43.334;21.918;2023-05-10T21:00:18;14.3;100.0
22674;DHT22;11504;43.334;21.918;2023-05-10T21:04:56;14.2;100.0
22674;DHT22;11504;43.334;21.918;2023-05-10T21:09:34;14.2;100.0
22674;DHT22;11504;43.334;21.918;2023-05-10T21:14:10;14.2;100.0
22674;DHT22;11504;43.334;21.918;2023-05-10T21:18:46;14.2;100.0
22674;DHT22;11504;43.334;21.918;2023-05-10T21:23:24;14.2;100.0
22674;DHT22;11504;43.334;21.918;2023-05-10T21:28:01;14.2;100.0
22674;DHT22;11504;43.334;21.918;2023-05-10T21:32:37;14.1;100.0
22674;DHT22;11504;43.334;21.918;2023-05-10T21:37:14;14.1;100.0
22674;DHT22;11504;43.334;21.918;2023-05-10T21:41:51;14.1;100.0
22674;DHT22;11504;43.334;21.918;2023-05-10T21:46:28;14.1;100.0
22674;DHT22;11504;43.334;21.918;2023-05-10T21:51:05;14.1;100.0
22674;DHT22;11504;43.334;21.918;2023-05-10T21:55:42;14.1;100.0
22674;DHT22;11504;43.334;21.918;2023-05-10T22:00:19;14.1;100.0
22674;DHT22;11504;43.334;21.918;2023-05-10T22:04:56;14.1;100.0
22674;DHT22;11504;43.334;21.918;2023-05-10T22:09:33;14.1;100.0
22674;DHT22;11504;43.334;21.918;2023-05-10T22:14:09;14.1;100.0
22674;DHT22;11504;43.334;21.918;2023-05-10T22:18:46;14.1;100.0
22674;DHT22;11504;43.334;21.918;2023-05-10T22:23:23;14.1;100.0
22674;DHT22;11504;43.334;21.918;2023-05-10T22:28:00;14.1;100.0
22674;DHT22;11504;43.334;21.918;2023-05-10T22:32:37;14.1;100.0
22674;DHT22;11504;43.334;21.918;2023-05-10T22:37:13;14.1;100.0
22674;DHT22;11504;43.334;21.918;2023-05-10T22:41:51;14.0;100.0
22674;DHT22;11504;43.334;21.918;2023-05-10T22:46:28;14.0;100.0
22674;DHT22;11504;43.334;21.918;2023-05-10T22:51:07;14.0;100.0
22674;DHT22;11504;43.334;21.918;2023-05-10T22:55:44;14.0;100.0
22674;DHT22;11504;43.334;21.918;2023-05-10T23:00:21;14.0;100.0
22674;DHT22;11504;43.334;21.918;2023-05-10T23:04:58;14.0;100.0
22674;DHT22;11504;43.334;21.918;2023-05-10T23:09:35;14.0;100.0
22674;DHT22;11504;43.334;21.918;2023-05-10T23:14:12;14.0;100.0
22674;DHT22;11504;43.334;21.918;2023-05-10T23:18:49;14.0;100.0
22674;DHT22;11504;43.334;21.918;2023-05-10T23:23:25;14.0;100.0
22674;DHT22;11504;43.334;21.918;2023-05-10T23:28:03;14.0;100.0
22674;DHT22;11504;43.334;21.918;2023-05-10T23:32:40;14.0;100.0
22674;DHT22;11504;43.334;21.918;2023-05-10T23:37:17;14.0;100.0
22674;DHT22;11504;43.334;21.918;2023-05-10T23:41:54;14.0;100.0
22674;DHT22;11504;43.334;21.918;2023-05-10T23:46:31;14.0;100.0
22674;DHT22;11504;43.334;21.918;2023-05-10T23:51:07;14.0;100.0
22674;DHT22;11504;43.334;21.918;2023-05-10T23:55:44;14.0;100.0
